createdAt,value
2023-11-12T00:02:47.017Z,99581.00
2023-11-12T00:06:10.692Z,99582.00
2023-11-12T00:09:34.008Z,99575.00
2023-11-12T00:12:57.396Z,99573.00
2023-11-12T00:16:20.535Z,99580.00
2023-11-12T00:19:43.715Z,99571.00
2023-11-12T00:23:07.130Z,99571.00
2023-11-12T00:26:30.160Z,99547.00
2023-11-12T00:29:53.872Z,99556.00
2023-11-12T00:33:17.538Z,99562.00
2023-11-12T00:36:40.770Z,99565.00
2023-11-12T00:40:04.330Z,99562.00
2023-11-12T00:43:27.295Z,99563.00
2023-11-12T00:46:50.831Z,99552.00
2023-11-12T00:50:14.291Z,99548.00
2023-11-12T00:53:38.031Z,99546.00
2023-11-12T00:57:01.810Z,99543.00
2023-11-12T01:00:26.133Z,99532.00
2023-11-12T01:03:49.461Z,99551.00
2023-11-12T01:07:12.632Z,99542.00
2023-11-12T01:10:36.692Z,99541.00
2023-11-12T01:17:26.163Z,99538.00
2023-11-12T01:20:49.340Z,99539.00
2023-11-12T01:24:12.353Z,99539.00
2023-11-12T01:27:35.913Z,99532.00
2023-11-12T01:30:05.032Z,99544.00
2023-11-12T01:32:34.439Z,99548.00
2023-11-12T01:35:01.985Z,99553.00
2023-11-12T01:37:29.223Z,99551.00
2023-11-12T01:39:56.620Z,99557.00
2023-11-12T01:42:24.190Z,99550.00
2023-11-12T01:44:50.809Z,99553.00
2023-11-12T01:47:18.290Z,99548.00
2023-11-12T01:49:45.234Z,99548.00
2023-11-12T01:52:12.710Z,99539.00
2023-11-12T01:54:41.928Z,99534.00
2023-11-12T01:57:09.627Z,99536.00
2023-11-12T01:59:37.166Z,99533.00
2023-11-12T02:02:04.512Z,99532.00
2023-11-12T02:04:31.373Z,99534.00
2023-11-12T02:07:00.519Z,99535.00
2023-11-12T02:09:28.526Z,99519.00
2023-11-12T02:11:56.561Z,99522.00
2023-11-12T02:14:26.267Z,99512.00
2023-11-12T02:16:54.008Z,99512.00
2023-11-12T02:19:25.077Z,99524.00
2023-11-12T02:21:51.909Z,99523.00
2023-11-12T02:24:19.374Z,99523.00
2023-11-12T02:26:48.141Z,99518.00
2023-11-12T02:29:16.691Z,99514.00
2023-11-12T02:31:44.291Z,99512.00
2023-11-12T02:34:11.866Z,99516.00
2023-11-12T02:36:39.832Z,99510.00
2023-11-12T02:39:10.922Z,99497.00
2023-11-12T02:41:40.740Z,99488.00
2023-11-12T02:44:10.696Z,99501.00
2023-11-12T02:46:38.228Z,99496.00
2023-11-12T02:49:14.148Z,99495.00
2023-11-12T02:51:41.612Z,99497.00
2023-11-12T02:54:08.920Z,99480.00
2023-11-12T02:56:36.140Z,99482.00
2023-11-12T02:59:03.261Z,99471.00
2023-11-12T03:01:30.227Z,99485.00
2023-11-12T03:03:57.387Z,99479.00
2023-11-12T03:06:24.798Z,99481.00
2023-11-12T03:08:51.310Z,99468.00
2023-11-12T03:11:18.164Z,99462.00
2023-11-12T03:13:46.317Z,99461.00
2023-11-12T03:16:14.976Z,99459.00
2023-11-12T03:18:41.634Z,99462.00
2023-11-12T03:21:11.243Z,99458.00
2023-11-12T03:23:39.914Z,99452.00
2023-11-12T03:26:07.606Z,99464.00
2023-11-12T03:28:40.505Z,99448.00
2023-11-12T03:31:07.477Z,99454.00
2023-11-12T03:33:36.561Z,99443.00
2023-11-12T03:36:05.328Z,99443.00
2023-11-12T03:38:34.902Z,99453.00
2023-11-12T03:41:02.204Z,99447.00
2023-11-12T03:43:28.912Z,99458.00
2023-11-12T03:45:55.493Z,99460.00
2023-11-12T03:48:22.304Z,99461.00
2023-11-12T03:50:48.995Z,99459.00
2023-11-12T03:53:15.618Z,99460.00
2023-11-12T03:55:42.945Z,99469.00
2023-11-12T03:58:09.983Z,99460.00
2023-11-12T04:00:37.979Z,99470.00
2023-11-12T04:03:06.777Z,99462.00
2023-11-12T04:05:33.865Z,99457.00
2023-11-12T04:08:03.258Z,99458.00
2023-11-12T04:10:30.953Z,99451.00
2023-11-12T04:13:01.108Z,99452.00
2023-11-12T04:15:29.401Z,99458.00
2023-11-12T04:17:56.732Z,99459.00
2023-11-12T04:20:29.597Z,99457.00
2023-11-12T04:22:57.966Z,99455.00
2023-11-12T04:25:24.835Z,99447.00
2023-11-12T04:27:51.445Z,99445.00
2023-11-12T04:30:19.093Z,99450.00
2023-11-12T04:32:46.527Z,99444.00
2023-11-12T04:35:13.185Z,99441.00
2023-11-12T04:37:40.679Z,99438.00
2023-11-12T04:40:14.097Z,99434.00
2023-11-12T04:42:42.902Z,99437.00
2023-11-12T04:45:12.703Z,99435.00
2023-11-12T04:47:39.819Z,99431.00
2023-11-12T04:50:07.593Z,99436.00
2023-11-12T04:52:34.312Z,99432.00
2023-11-12T04:55:01.599Z,99439.00
2023-11-12T04:57:29.492Z,99419.00
2023-11-12T04:59:56.534Z,99427.00
2023-11-12T05:02:23.390Z,99427.00
2023-11-12T05:04:51.153Z,99422.00
2023-11-12T05:07:19.268Z,99427.00
2023-11-12T05:09:47.070Z,99420.00
2023-11-12T05:14:43.276Z,99421.00
2023-11-12T05:17:10.082Z,99414.00
2023-11-12T05:19:37.156Z,99420.00
2023-11-12T05:22:04.519Z,99428.00
2023-11-12T05:24:31.330Z,99422.00
2023-11-12T05:26:58.460Z,99415.00
2023-11-12T05:29:25.032Z,99419.00
2023-11-12T05:31:51.800Z,99434.00
2023-11-12T05:34:19.475Z,99426.00
2023-11-12T05:36:53.375Z,99434.00
2023-11-12T05:39:21.250Z,99429.00
2023-11-12T05:41:47.774Z,99433.00
2023-11-12T05:44:14.330Z,99432.00
2023-11-12T05:46:41.457Z,99435.00
2023-11-12T05:49:08.121Z,99433.00
2023-11-12T05:51:34.995Z,99435.00
2023-11-12T05:54:02.986Z,99431.00
2023-11-12T05:56:30.360Z,99444.00
2023-11-12T05:58:58.268Z,99447.00
2023-11-12T06:01:25.548Z,99441.00
2023-11-12T06:03:54.039Z,99460.00
2023-11-12T06:06:22.274Z,99446.00
2023-11-12T06:08:50.963Z,99456.00
2023-11-12T06:11:17.595Z,99464.00
2023-11-12T06:13:44.837Z,99464.00
2023-11-12T06:16:11.889Z,99455.00
2023-11-12T06:18:38.541Z,99461.00
2023-11-12T06:21:05.788Z,99454.00
2023-11-12T06:23:33.045Z,99467.00
2023-11-12T06:25:59.799Z,99465.00
2023-11-12T06:28:27.874Z,99465.00
2023-11-12T06:30:58.981Z,99469.00
2023-11-12T06:33:25.893Z,99472.00
2023-11-12T06:35:52.940Z,99471.00
2023-11-12T06:38:20.440Z,99472.00
2023-11-12T06:40:46.987Z,99476.00
2023-11-12T06:43:17.007Z,99483.00
2023-11-12T06:45:44.399Z,99495.00
2023-11-12T06:48:11.280Z,99505.00
2023-11-12T06:50:38.120Z,99502.00
2023-11-12T06:53:05.328Z,99508.00
2023-11-12T06:55:34.704Z,99508.00
2023-11-12T06:58:01.718Z,99517.00
2023-11-12T07:00:28.893Z,99518.00
2023-11-12T07:02:55.899Z,99524.00
2023-11-12T07:05:23.469Z,99525.00
2023-11-12T07:07:50.783Z,99530.00
2023-11-12T07:10:20.195Z,99523.00
2023-11-12T07:12:48.635Z,99532.00
2023-11-12T07:15:18.102Z,99535.00
2023-11-12T07:17:49.082Z,99547.00
2023-11-12T07:20:18.533Z,99544.00
2023-11-12T07:22:46.723Z,99549.00
2023-11-12T07:25:14.017Z,99554.00
2023-11-12T07:27:44.769Z,99554.00
2023-11-12T07:30:12.224Z,99551.00
2023-11-12T07:32:39.368Z,99563.00
2023-11-12T07:35:09.241Z,99573.00
2023-11-12T07:37:37.029Z,99578.00
2023-11-12T07:40:11.937Z,99568.00
2023-11-12T07:42:40.254Z,99567.00
2023-11-12T07:45:13.711Z,99577.00
2023-11-12T07:47:42.874Z,99578.00
2023-11-12T07:50:09.821Z,99575.00
2023-11-12T07:52:37.173Z,99579.00
2023-11-12T07:55:06.433Z,99576.00
2023-11-12T07:57:34.642Z,99583.00
2023-11-12T08:00:01.686Z,99580.00
2023-11-12T08:02:30.096Z,99570.00
2023-11-12T08:05:04.928Z,99563.00
2023-11-12T08:07:32.085Z,99562.00
2023-11-12T08:09:58.704Z,99566.00
2023-11-12T08:12:25.343Z,99572.00
2023-11-12T08:14:52.187Z,99569.00
2023-11-12T08:17:18.837Z,99570.00
2023-11-12T08:19:46.380Z,99566.00
2023-11-12T08:22:14.474Z,99561.00
2023-11-12T08:24:41.407Z,99556.00
2023-11-12T08:27:08.497Z,99568.00
2023-11-12T08:29:37.147Z,99572.00
2023-11-12T08:32:04.200Z,99571.00
2023-11-12T08:34:30.914Z,99570.00
2023-11-12T08:36:58.541Z,99567.00
2023-11-12T08:39:26.635Z,99575.00
2023-11-12T08:41:56.076Z,99575.00
2023-11-12T08:44:23.251Z,99571.00
2023-11-12T08:46:53.163Z,99587.00
2023-11-12T08:49:20.456Z,99582.00
2023-11-12T08:51:47.550Z,99579.00
2023-11-12T08:54:16.694Z,99572.00
2023-11-12T08:56:43.457Z,99581.00
2023-11-12T08:59:11.972Z,99576.00
2023-11-12T09:01:39.298Z,99580.00
2023-11-12T09:04:06.892Z,99579.00
2023-11-12T09:06:33.853Z,99589.00
2023-11-12T09:09:00.505Z,99583.00
2023-11-12T09:11:28.252Z,99576.00
2023-11-12T09:13:56.284Z,99584.00
2023-11-12T09:16:22.895Z,99586.00
2023-11-12T09:18:49.811Z,99587.00
2023-11-12T09:21:17.132Z,99580.00
2023-11-12T09:23:46.577Z,99579.00
2023-11-12T09:26:22.492Z,99584.00
2023-11-12T09:28:50.107Z,99579.00
2023-11-12T09:31:17.759Z,99589.00
2023-11-12T09:33:44.374Z,99588.00
2023-11-12T09:36:12.123Z,99587.00
2023-11-12T09:38:40.111Z,99582.00
2023-11-12T09:41:07.407Z,99586.00
2023-11-12T09:43:34.621Z,99580.00
2023-11-12T09:46:01.531Z,99583.00
2023-11-12T09:48:36.655Z,99578.00
2023-11-12T09:51:07.217Z,99584.00
2023-11-12T09:53:35.336Z,99577.00
2023-11-12T09:56:10.892Z,99564.00
2023-11-12T09:58:43.395Z,99576.00
2023-11-12T10:01:12.711Z,99583.00
2023-11-12T10:03:40.280Z,99571.00
2023-11-12T10:06:08.566Z,99574.00
2023-11-12T10:08:38.168Z,99574.00
2023-11-12T10:11:21.785Z,99574.00
2023-11-12T10:13:49.682Z,99576.00
2023-11-12T10:16:30.392Z,99584.00
2023-11-12T10:19:14.175Z,99582.00
2023-11-12T10:21:57.530Z,99577.00
2023-11-12T10:24:25.147Z,99574.00
2023-11-12T10:26:54.174Z,99572.00
2023-11-12T10:29:24.918Z,99573.00
2023-11-12T10:31:52.830Z,99564.00
2023-11-12T10:34:20.738Z,99574.00
2023-11-12T10:37:09.297Z,99564.00
2023-11-12T10:39:44.761Z,99565.00
2023-11-12T10:42:25.510Z,99552.00
2023-11-12T10:44:57.937Z,99565.00
2023-11-12T10:47:30.774Z,99557.00
2023-11-12T10:49:57.834Z,99563.00
2023-11-12T10:52:24.489Z,99561.00
2023-11-12T10:54:52.305Z,99560.00
2023-11-12T10:57:24.776Z,99556.00
2023-11-12T10:59:52.377Z,99552.00
2023-11-12T11:02:23.578Z,99550.00
2023-11-12T11:04:50.651Z,99551.00
2023-11-12T11:07:17.738Z,99547.00
2023-11-12T11:09:45.062Z,99538.00
2023-11-12T11:12:12.732Z,99538.00
2023-11-12T11:14:40.927Z,99535.00
2023-11-12T11:17:09.935Z,99526.00
2023-11-12T11:19:46.360Z,99520.00
2023-11-12T11:22:31.001Z,99528.00
2023-11-12T11:24:58.027Z,99525.00
2023-11-12T11:27:26.616Z,99524.00
2023-11-12T11:30:07.292Z,99516.00
2023-11-12T11:32:34.379Z,99516.00
2023-11-12T11:35:03.234Z,99526.00
2023-11-12T11:38:14.122Z,99525.00
2023-11-12T11:40:46.342Z,99522.00
2023-11-12T11:43:24.992Z,99525.00
2023-11-12T11:46:12.012Z,99524.00
2023-11-12T11:48:44.761Z,99531.00
2023-11-12T11:51:48.760Z,99520.00
2023-11-12T11:54:18.823Z,99528.00
2023-11-12T11:56:45.633Z,99521.00
2023-11-12T11:59:14.339Z,99534.00
2023-11-12T12:01:50.455Z,99532.00
2023-11-12T12:04:18.882Z,99535.00
2023-11-12T12:06:47.629Z,99540.00
2023-11-12T12:09:18.929Z,99538.00
2023-11-12T12:12:03.917Z,99539.00
2023-11-12T12:14:36.177Z,99532.00
2023-11-12T12:17:10.380Z,99532.00
2023-11-12T12:19:37.121Z,99533.00
2023-11-12T12:22:06.438Z,99534.00
2023-11-12T12:24:37.120Z,99531.00
2023-11-12T12:27:15.008Z,99537.00
2023-11-12T12:29:46.864Z,99533.00
2023-11-12T12:32:21.047Z,99538.00
2023-11-12T12:34:58.976Z,99536.00
2023-11-12T12:37:28.726Z,99531.00
2023-11-12T12:40:08.016Z,99539.00
2023-11-12T12:42:37.463Z,99540.00
2023-11-12T12:45:12.409Z,99547.00
2023-11-12T12:47:42.855Z,99539.00
2023-11-12T12:50:23.200Z,99546.00
2023-11-12T12:52:52.680Z,99534.00
2023-11-12T12:55:22.790Z,99538.00
2023-11-12T12:57:51.339Z,99536.00
2023-11-12T13:00:19.416Z,99531.00
2023-11-12T13:02:49.191Z,99529.00
2023-11-12T13:05:20.552Z,99530.00
2023-11-12T13:07:50.573Z,99517.00
2023-11-12T13:10:23.784Z,99520.00
2023-11-12T13:12:55.841Z,99509.00
2023-11-12T13:15:23.262Z,99513.00
2023-11-12T13:17:51.000Z,99500.00
2023-11-12T13:20:18.180Z,99508.00
2023-11-12T13:22:45.590Z,99511.00
2023-11-12T13:25:16.346Z,99503.00
2023-11-12T13:27:47.079Z,99496.00
2023-11-12T13:30:14.427Z,99485.00
2023-11-12T13:32:42.566Z,99488.00
2023-11-12T13:35:13.940Z,99487.00
2023-11-12T13:37:42.182Z,99491.00
2023-11-12T13:40:16.529Z,99489.00
2023-11-12T13:43:05.090Z,99485.00
2023-11-12T13:45:31.728Z,99491.00
2023-11-12T13:48:13.651Z,99491.00
2023-11-12T13:50:44.655Z,99489.00
2023-11-12T13:53:14.087Z,99491.00
2023-11-12T13:55:45.184Z,99488.00
2023-11-12T13:58:12.830Z,99500.00
2023-11-12T14:00:42.736Z,99503.00
2023-11-12T14:03:13.066Z,99507.00
2023-11-12T14:05:40.489Z,99503.00
2023-11-12T14:08:11.279Z,99504.00
2023-11-12T14:10:40.055Z,99503.00
2023-11-12T14:13:06.872Z,99498.00
2023-11-12T14:15:35.041Z,99498.00
2023-11-12T14:18:02.054Z,99504.00
2023-11-12T14:20:30.722Z,99509.00
2023-11-12T14:22:58.999Z,99521.00
2023-11-12T14:25:26.176Z,99510.00
2023-11-12T14:27:56.013Z,99523.00
2023-11-12T14:30:22.945Z,99519.00
2023-11-12T14:32:51.688Z,99523.00
2023-11-12T14:35:35.676Z,99521.00
2023-11-12T14:38:38.432Z,99514.00
2023-11-12T14:41:15.686Z,99518.00
2023-11-12T14:43:42.632Z,99514.00
2023-11-12T14:46:09.403Z,99519.00
2023-11-12T14:48:58.187Z,99510.00
2023-11-12T14:51:38.286Z,99516.00
2023-11-12T14:54:10.518Z,99522.00
2023-11-12T14:56:38.768Z,99520.00
2023-11-12T14:59:05.401Z,99526.00
2023-11-12T15:01:32.428Z,99535.00
2023-11-12T15:04:00.962Z,99539.00
2023-11-12T15:06:28.821Z,99537.00
2023-11-12T15:08:55.760Z,99541.00
2023-11-12T15:11:22.549Z,99540.00
2023-11-12T15:13:49.166Z,99552.00
2023-11-12T15:16:20.720Z,99550.00
2023-11-12T15:18:48.240Z,99552.00
2023-11-12T15:21:15.691Z,99549.00
2023-11-12T15:23:42.861Z,99547.00
2023-11-12T15:26:17.160Z,99552.00
2023-11-12T15:28:43.780Z,99552.00
2023-11-12T15:31:12.788Z,99548.00
2023-11-12T15:33:40.362Z,99547.00
2023-11-12T15:36:11.746Z,99554.00
2023-11-12T15:38:38.611Z,99553.00
2023-11-12T15:41:08.651Z,99537.00
2023-11-12T15:43:35.270Z,99554.00
2023-11-12T15:46:05.649Z,99557.00
2023-11-12T15:48:33.131Z,99555.00
2023-11-12T15:51:01.699Z,99556.00
2023-11-12T15:53:32.383Z,99562.00
2023-11-12T15:56:01.959Z,99552.00
2023-11-12T15:58:29.419Z,99553.00
2023-11-12T16:00:56.195Z,99557.00
2023-11-12T16:03:26.494Z,99564.00
2023-11-12T16:05:53.338Z,99584.00
2023-11-12T16:08:20.310Z,99584.00
2023-11-12T16:10:47.324Z,99585.00
2023-11-12T16:13:14.501Z,99596.00
2023-11-12T16:15:41.351Z,99591.00
2023-11-12T16:18:08.432Z,99601.00
2023-11-12T16:20:35.590Z,99610.00
2023-11-12T16:23:02.214Z,99600.00
2023-11-12T16:25:29.071Z,99594.00
2023-11-12T16:27:56.606Z,99595.00
2023-11-12T16:30:25.370Z,99608.00
2023-11-12T16:32:52.284Z,99614.00
2023-11-12T16:35:21.262Z,99617.00
2023-11-12T16:37:49.554Z,99625.00
2023-11-12T16:40:20.137Z,99621.00
2023-11-12T16:42:51.178Z,99629.00
2023-11-12T16:45:18.645Z,99620.00
2023-11-12T16:47:45.637Z,99633.00
2023-11-12T16:50:15.533Z,99628.00
2023-11-12T16:52:43.359Z,99627.00
2023-11-12T16:55:11.184Z,99620.00
2023-11-12T16:57:38.576Z,99618.00
2023-11-12T17:00:07.062Z,99627.00
2023-11-12T17:02:36.760Z,99624.00
2023-11-12T17:05:06.040Z,99627.00
2023-11-12T17:07:33.354Z,99632.00
2023-11-12T17:10:00.213Z,99631.00
2023-11-12T17:12:27.296Z,99625.00
2023-11-12T17:14:56.126Z,99623.00
2023-11-12T17:17:24.099Z,99627.00
2023-11-12T17:19:51.565Z,99635.00
2023-11-12T17:22:18.264Z,99632.00
2023-11-12T17:24:46.408Z,99633.00
2023-11-12T17:27:14.750Z,99632.00
2023-11-12T17:29:41.527Z,99637.00
2023-11-12T17:32:08.126Z,99640.00
2023-11-12T17:34:35.000Z,99647.00
2023-11-12T17:37:02.711Z,99635.00
2023-11-12T17:39:29.440Z,99644.00
2023-11-12T17:41:58.884Z,99650.00
2023-11-12T17:44:26.289Z,99649.00
2023-11-12T17:46:52.924Z,99657.00
2023-11-12T17:49:21.125Z,99662.00
2023-11-12T17:51:47.895Z,99663.00
2023-11-12T17:54:16.735Z,99659.00
2023-11-12T17:56:44.371Z,99660.00
2023-11-12T17:59:12.725Z,99647.00
2023-11-12T18:01:40.706Z,99654.00
2023-11-12T18:04:08.275Z,99662.00
2023-11-12T18:06:36.772Z,99663.00
2023-11-12T18:09:04.668Z,99654.00
2023-11-12T18:11:33.235Z,99647.00
2023-11-12T18:14:01.016Z,99651.00
2023-11-12T18:16:28.141Z,99652.00
2023-11-12T18:18:56.638Z,99648.00
2023-11-12T18:21:23.416Z,99638.00
2023-11-12T18:23:50.420Z,99645.00
2023-11-12T18:26:18.735Z,99663.00
2023-11-12T18:28:45.501Z,99690.00
2023-11-12T18:31:25.249Z,99694.00
2023-11-12T18:33:53.352Z,99682.00
2023-11-12T18:36:20.029Z,99692.00
2023-11-12T18:38:46.628Z,99689.00
2023-11-12T18:41:26.492Z,99685.00
2023-11-12T18:44:04.358Z,99684.00
2023-11-12T18:46:32.059Z,99691.00
2023-11-12T18:48:58.739Z,99704.00
2023-11-12T18:51:27.083Z,99725.00
2023-11-12T18:53:59.270Z,99719.00
2023-11-12T18:56:26.362Z,99728.00
2023-11-12T18:58:57.282Z,99716.00
2023-11-12T19:01:25.194Z,99701.00
2023-11-12T19:03:53.612Z,99703.00
2023-11-12T19:06:20.480Z,99705.00
2023-11-12T19:08:47.893Z,99710.00
2023-11-12T19:11:14.642Z,99700.00
2023-11-12T19:13:41.538Z,99702.00
2023-11-12T19:16:10.241Z,99697.00
2023-11-12T19:18:39.024Z,99707.00
2023-11-12T19:21:05.827Z,99717.00
2023-11-12T19:23:32.783Z,99703.00
2023-11-12T19:25:59.942Z,99706.00
2023-11-12T19:28:26.883Z,99698.00
2023-11-12T19:30:55.147Z,99702.00
2023-11-12T19:33:22.628Z,99716.00
2023-11-12T19:35:52.562Z,99703.00
2023-11-12T19:38:20.975Z,99700.00
2023-11-12T19:40:47.720Z,99720.00
2023-11-12T19:43:14.767Z,99725.00
2023-11-12T19:45:45.076Z,99723.00
2023-11-12T19:48:14.655Z,99728.00
2023-11-12T19:50:41.850Z,99730.00
2023-11-12T19:53:14.181Z,99737.00
2023-11-12T19:55:43.994Z,99746.00
2023-11-12T19:58:14.440Z,99762.00
2023-11-12T20:00:41.139Z,99764.00
2023-11-12T20:03:08.813Z,99750.00
2023-11-12T20:05:39.086Z,99736.00
2023-11-12T20:08:08.559Z,99730.00
2023-11-12T20:10:39.182Z,99729.00
2023-11-12T20:13:06.108Z,99727.00
2023-11-12T20:15:37.626Z,99718.00
2023-11-12T20:18:10.699Z,99712.00
2023-11-12T20:20:41.237Z,99717.00
2023-11-12T20:23:09.306Z,99733.00
2023-11-12T20:25:40.129Z,99730.00
2023-11-12T20:28:14.997Z,99746.00
2023-11-12T20:30:46.447Z,99747.00
2023-11-12T20:33:17.335Z,99760.00
2023-11-12T20:35:48.141Z,99757.00
2023-11-12T20:38:15.669Z,99748.00
2023-11-12T20:40:42.330Z,99738.00
2023-11-12T20:43:12.036Z,99747.00
2023-11-12T20:45:41.293Z,99770.00
2023-11-12T20:48:08.054Z,99770.00
2023-11-12T20:50:39.302Z,99770.00
2023-11-12T20:53:08.653Z,99756.00
2023-11-12T20:55:36.802Z,99747.00
2023-11-12T20:58:10.657Z,99738.00
2023-11-12T21:00:37.814Z,99746.00
2023-11-12T21:03:06.112Z,99740.00
2023-11-12T21:05:35.302Z,99742.00
2023-11-12T21:08:02.111Z,99728.00
2023-11-12T21:10:34.255Z,99745.00
2023-11-12T21:13:00.902Z,99740.00
2023-11-12T21:15:29.205Z,99743.00
2023-11-12T21:17:56.778Z,99735.00
2023-11-12T21:20:23.382Z,99730.00
2023-11-12T21:22:51.053Z,99746.00
2023-11-12T21:25:21.075Z,99760.00
2023-11-12T21:27:48.578Z,99759.00
2023-11-12T21:30:20.752Z,99753.00
2023-11-12T21:32:47.814Z,99748.00
2023-11-12T21:35:16.003Z,99740.00
2023-11-12T21:37:42.934Z,99748.00
2023-11-12T21:40:11.864Z,99754.00
2023-11-12T21:42:40.891Z,99756.00
2023-11-12T21:45:08.674Z,99770.00
2023-11-12T21:47:36.294Z,99767.00
2023-11-12T21:50:06.620Z,99776.00
2023-11-12T21:52:34.356Z,99780.00
2023-11-12T21:55:04.415Z,99777.00
2023-11-12T21:57:35.126Z,99767.00
2023-11-12T22:00:02.558Z,99752.00
2023-11-12T22:02:32.456Z,99758.00
2023-11-12T22:05:02.389Z,99755.00
2023-11-12T22:07:29.016Z,99764.00
2023-11-12T22:09:55.801Z,99758.00
2023-11-12T22:12:27.470Z,99753.00
2023-11-12T22:14:56.188Z,99754.00
2023-11-12T22:17:25.496Z,99747.00
2023-11-12T22:19:54.322Z,99742.00
2023-11-12T22:22:22.161Z,99739.00
2023-11-12T22:24:58.366Z,99755.00
2023-11-12T22:27:34.317Z,99758.00
2023-11-12T22:30:01.867Z,99760.00
2023-11-12T22:33:05.038Z,99771.00
2023-11-12T22:35:35.371Z,99772.00
2023-11-12T22:38:03.343Z,99785.00
2023-11-12T22:40:30.209Z,99785.00
2023-11-12T22:42:57.170Z,99790.00
2023-11-12T22:45:25.149Z,99800.00
2023-11-12T22:47:54.539Z,99785.00
2023-11-12T22:50:23.659Z,99795.00
2023-11-12T22:52:50.329Z,99804.00
2023-11-12T22:55:18.259Z,99817.00
2023-11-12T22:57:49.445Z,99810.00
2023-11-12T23:00:36.959Z,99798.00
2023-11-12T23:03:11.019Z,99786.00
2023-11-12T23:05:39.199Z,99787.00
2023-11-12T23:08:31.047Z,99790.00
2023-11-12T23:11:02.351Z,99790.00
2023-11-12T23:13:34.177Z,99796.00
2023-11-12T23:16:05.201Z,99804.00
2023-11-12T23:18:31.716Z,99819.00
2023-11-12T23:21:06.875Z,99808.00
2023-11-12T23:23:38.179Z,99805.00
2023-11-12T23:26:06.707Z,99810.00
2023-11-12T23:28:36.282Z,99805.00
2023-11-12T23:31:07.744Z,99812.00
2023-11-12T23:33:41.694Z,99800.00
2023-11-12T23:36:14.171Z,99795.00
2023-11-12T23:38:44.652Z,99818.00
2023-11-12T23:41:13.630Z,99819.00
2023-11-12T23:43:40.350Z,99801.00
2023-11-12T23:46:07.328Z,99812.00
2023-11-12T23:48:38.185Z,99801.00
2023-11-12T23:51:05.358Z,99789.00
2023-11-12T23:53:32.136Z,99782.00
2023-11-12T23:55:58.956Z,99749.00
2023-11-12T23:58:26.197Z,99749.00
